Time;durP1;ratioP1;P1;durP2;ratioP2;P2;SDS_P1;SDS_P2;PMS_P1;PMS_P2;Temp;Humidity;BMP_temperature;BMP_pressure;BME280_temperature;BME280_humidity;BME280_pressure;Samples;Min_cycle;Max_cycle;Signal;HPM_P1;HPM_P2
2022/07/16 00:03:02;;;;;;;;;;;26.40;31.50;;;;;;1564201;74;1238;-66
2022/07/16 00:05:04;;;;;;;;;;;26.40;31.40;;;;;;1570760;74;1936;-65
2022/07/16 00:07:25;;;;;;;;;;;26.40;31.40;;;;;;1566824;74;729;-67
2022/07/16 00:09:27;;;;;;;;;;;26.30;31.50;;;;;;1603148;73;824;-58
2022/07/16 00:11:29;;;;;;;;;;;26.40;31.40;;;;;;1603764;73;1127;-53
2022/07/16 00:13:31;;;;;;;;;;;26.40;31.40;;;;;;1571085;74;688;-55
2022/07/16 00:15:33;;;;;;;;;;;26.40;31.30;;;;;;1565882;74;814;-58
2022/07/16 00:17:35;;;;;;;;;;;26.30;31.30;;;;;;1578044;74;787;-58
2022/07/16 00:19:37;;;;;;;;;;;26.40;31.30;;;;;;1567786;74;812;-58
2022/07/16 00:21:39;;;;;;;;;;;26.30;31.30;;;;;;1578832;74;1166;-58
2022/07/16 00:23:41;;;;;;;;;;;26.40;31.30;;;;;;1567265;74;642;-58
2022/07/16 00:25:42;;;;;;;;;;;26.40;31.30;;;;;;1577131;74;1932;-56
2022/07/16 00:27:44;;;;;;;;;;;26.40;31.30;;;;;;1578047;74;654;-56
2022/07/16 00:29:46;;;;;;;;;;;26.40;31.40;;;;;;1572312;74;693;-54
2022/07/16 00:31:48;;;;;;;;;;;26.40;31.30;;;;;;1576997;74;1734;-58
2022/07/16 00:33:50;;;;;;;;;;;26.30;31.30;;;;;;1573100;74;826;-58
2022/07/16 00:35:52;;;;;;;;;;;26.40;31.30;;;;;;1573495;74;747;-58
2022/07/16 00:37:54;;;;;;;;;;;26.30;31.30;;;;;;1573669;74;761;-58
2022/07/16 00:39:56;;;;;;;;;;;26.30;31.30;;;;;;1569478;74;785;-57
2022/07/16 00:41:58;;;;;;;;;;;26.30;31.30;;;;;;1576465;74;1155;-58
2022/07/16 00:44:01;;;;;;;;;;;26.30;31.30;;;;;;1570236;74;675;-56
2022/07/16 00:46:03;;;;;;;;;;;26.30;31.30;;;;;;1573635;74;1935;-57
2022/07/16 00:48:05;;;;;;;;;;;26.40;31.30;;;;;;1575292;74;755;-58
2022/07/16 00:50:07;;;;;;;;;;;26.30;31.30;;;;;;1575949;74;824;-58
2022/07/16 00:52:09;;;;;;;;;;;26.30;31.30;;;;;;1577392;74;1143;-57
2022/07/16 00:54:11;;;;;;;;;;;26.30;31.30;;;;;;1578135;74;787;-57
2022/07/16 00:56:14;;;;;;;;;;;26.40;31.20;;;;;;1577385;74;751;-57
2022/07/16 00:58:16;;;;;;;;;;;26.30;31.20;;;;;;1574194;74;687;-58
2022/07/16 01:00:17;;;;;;;;;;;26.40;31.20;;;;;;1566239;74;825;-58
2022/07/16 01:02:19;;;;;;;;;;;26.40;31.20;;;;;;1568463;74;1203;-57
2022/07/16 01:04:21;;;;;;;;;;;26.40;31.10;;;;;;1572162;74;777;-54
2022/07/16 01:06:23;;;;;;;;;;;26.40;31.10;;;;;;1569081;74;1934;-56
2022/07/16 01:08:25;;;;;;;;;;;26.30;31.10;;;;;;1577588;74;743;-57
2022/07/16 01:10:27;;;;;;;;;;;26.30;31.10;;;;;;1575837;74;764;-58
2022/07/16 01:12:29;;;;;;;;;;;26.40;31.10;;;;;;1577199;74;1144;-58
2022/07/16 01:14:31;;;;;;;;;;;26.40;31.10;;;;;;1577277;74;853;-58
2022/07/16 01:16:33;;;;;;;;;;;26.30;31.10;;;;;;1579199;74;876;-57
2022/07/16 01:18:35;;;;;;;;;;;26.40;31.10;;;;;;1570282;74;723;-57
2022/07/16 01:20:37;;;;;;;;;;;26.40;31.20;;;;;;1578253;74;736;-58
2022/07/16 01:22:39;;;;;;;;;;;26.30;31.20;;;;;;1563332;74;1125;-57
2022/07/16 01:24:41;;;;;;;;;;;26.30;31.20;;;;;;1577056;74;1939;-53
2022/07/16 01:26:43;;;;;;;;;;;26.30;31.20;;;;;;1565490;74;1564;-54
2022/07/16 01:28:45;;;;;;;;;;;26.40;31.20;;;;;;1575906;74;732;-57
2022/07/16 01:30:46;;;;;;;;;;;26.30;31.20;;;;;;1574603;74;778;-58
2022/07/16 01:32:48;;;;;;;;;;;26.40;31.20;;;;;;1570888;74;1154;-58
2022/07/16 01:34:50;;;;;;;;;;;26.30;31.20;;;;;;1570581;74;781;-59
2022/07/16 01:36:53;;;;;;;;;;;26.30;31.10;;;;;;1571088;74;783;-58
2022/07/16 01:38:55;;;;;;;;;;;26.40;31.20;;;;;;1578367;74;657;-59
2022/07/16 01:40:57;;;;;;;;;;;26.40;31.20;;;;;;1572563;74;1559;-59
2022/07/16 01:42:59;;;;;;;;;;;26.40;31.20;;;;;;1588146;74;1110;-60
2022/07/16 01:45:01;;;;;;;;;;;26.40;31.20;;;;;;1582094;74;1954;-59
2022/07/16 01:47:03;;;;;;;;;;;26.30;31.20;;;;;;1577969;74;716;-59
2022/07/16 01:49:05;;;;;;;;;;;26.40;31.20;;;;;;1567217;74;711;-59
2022/07/16 01:51:06;;;;;;;;;;;26.40;31.20;;;;;;1573326;74;707;-59
2022/07/16 01:53:08;;;;;;;;;;;26.30;31.30;;;;;;1578304;74;1117;-60
2022/07/16 01:55:10;;;;;;;;;;;26.40;31.20;;;;;;1566287;74;1524;-59
2022/07/16 01:57:12;;;;;;;;;;;26.40;31.20;;;;;;1576176;74;748;-59
2022/07/16 01:59:14;;;;;;;;;;;26.40;31.30;;;;;;1573326;74;806;-58
2022/07/16 02:01:16;;;;;;;;;;;26.40;31.30;;;;;;1561571;74;628;-58
2022/07/16 02:03:18;;;;;;;;;;;26.30;31.30;;;;;;1561083;74;1143;-60
2022/07/16 02:05:19;;;;;;;;;;;26.30;31.30;;;;;;1574415;74;1930;-57
2022/07/16 02:07:21;;;;;;;;;;;26.30;31.30;;;;;;1572612;74;741;-58
2022/07/16 02:09:23;;;;;;;;;;;26.40;31.30;;;;;;1577035;74;1538;-59
2022/07/16 02:11:25;;;;;;;;;;;26.40;31.30;;;;;;1573465;74;1171;-58
2022/07/16 02:13:27;;;;;;;;;;;26.40;31.30;;;;;;1562644;74;768;-58
2022/07/16 02:15:29;;;;;;;;;;;26.30;31.20;;;;;;1575246;74;726;-58
2022/07/16 02:17:31;;;;;;;;;;;26.30;31.30;;;;;;1578590;74;637;-59
2022/07/16 02:19:33;;;;;;;;;;;26.30;31.30;;;;;;1572206;74;827;-59
2022/07/16 02:21:34;;;;;;;;;;;26.40;31.30;;;;;;1577537;74;1152;-59
2022/07/16 02:23:36;;;;;;;;;;;26.40;31.30;;;;;;1573463;74;1521;-59
2022/07/16 02:25:40;;;;;;;;;;;26.40;31.30;;;;;;1569730;74;1946;-59
2022/07/16 02:28:27;;;;;;;;;;;26.30;31.30;;;;;;1573109;74;678;-59
2022/07/16 02:29:46;;;;;;;;;;;26.40;31.30;;;;;;1555677;74;1372;-59
2022/07/16 02:31:47;;;;;;;;;;;26.30;31.30;;;;;;1578728;74;1127;-59
2022/07/16 02:33:49;;;;;;;;;;;26.30;31.20;;;;;;1569145;74;706;-58
2022/07/16 02:35:51;;;;;;;;;;;26.30;31.30;;;;;;1564152;74;760;-58
2022/07/16 02:37:53;;;;;;;;;;;26.30;31.30;;;;;;1577130;74;1367;-59
2022/07/16 02:39:55;;;;;;;;;;;26.30;31.30;;;;;;1572549;74;780;-58
2022/07/16 02:41:57;;;;;;;;;;;26.30;31.30;;;;;;1578001;74;1124;-59
2022/07/16 02:43:59;;;;;;;;;;;26.30;31.30;;;;;;1565018;74;795;-58
2022/07/16 02:46:00;;;;;;;;;;;26.30;31.30;;;;;;1575386;74;1945;-59
2022/07/16 02:48:02;;;;;;;;;;;26.30;31.30;;;;;;1574702;74;943;-59
2022/07/16 02:50:05;;;;;;;;;;;26.30;31.30;;;;;;1577729;74;798;-59
2022/07/16 02:52:06;;;;;;;;;;;26.30;31.30;;;;;;1571398;74;1458;-58
2022/07/16 02:54:08;;;;;;;;;;;26.30;31.30;;;;;;1577204;74;773;-58
2022/07/16 02:56:10;;;;;;;;;;;26.30;31.30;;;;;;1577722;74;755;-59
2022/07/16 02:58:12;;;;;;;;;;;26.30;31.30;;;;;;1578467;74;735;-58
2022/07/16 03:00:14;;;;;;;;;;;26.30;31.30;;;;;;1576328;74;751;-58
2022/07/16 03:02:16;;;;;;;;;;;26.30;31.30;;;;;;1574605;74;1180;-58
2022/07/16 03:04:18;;;;;;;;;;;26.30;31.40;;;;;;1574000;74;655;-58
2022/07/16 03:06:20;;;;;;;;;;;26.20;31.40;;;;;;1575738;74;1920;-58
2022/07/16 03:08:22;;;;;;;;;;;26.30;31.50;;;;;;1575905;74;685;-58
2022/07/16 03:10:24;;;;;;;;;;;26.30;31.30;;;;;;1576567;74;788;-58
2022/07/16 03:12:26;;;;;;;;;;;26.30;31.30;;;;;;1578515;74;1159;-58
2022/07/16 03:14:28;;;;;;;;;;;26.30;31.30;;;;;;1574109;74;781;-58
2022/07/16 03:16:30;;;;;;;;;;;26.30;31.30;;;;;;1577105;74;817;-57
2022/07/16 03:18:32;;;;;;;;;;;26.30;31.30;;;;;;1567130;74;766;-57
2022/07/16 03:20:34;;;;;;;;;;;26.30;31.20;;;;;;1576088;74;1596;-57
2022/07/16 03:22:36;;;;;;;;;;;26.30;31.30;;;;;;1576862;74;1144;-58
2022/07/16 03:24:37;;;;;;;;;;;26.30;31.30;;;;;;1577658;74;714;-59
2022/07/16 03:26:39;;;;;;;;;;;26.20;31.30;;;;;;1575361;74;1926;-58
2022/07/16 03:28:41;;;;;;;;;;;26.20;31.30;;;;;;1577332;74;747;-59
2022/07/16 03:30:43;;;;;;;;;;;26.30;31.40;;;;;;1574091;74;798;-59
2022/07/16 03:32:45;;;;;;;;;;;26.20;31.40;;;;;;1571719;74;1598;-58
2022/07/16 03:34:47;;;;;;;;;;;26.30;31.40;;;;;;1574608;74;813;-59
2022/07/16 03:36:49;;;;;;;;;;;26.30;31.50;;;;;;1570570;74;1019;-60
2022/07/16 03:39:06;;;;;;;;;;;26.30;31.40;;;;;;1561685;74;719;-60
2022/07/16 03:41:08;;;;;;;;;;;26.30;31.30;;;;;;1575258;74;734;-59
2022/07/16 03:43:10;;;;;;;;;;;26.20;31.40;;;;;;1573904;74;1132;-59
2022/07/16 03:45:12;;;;;;;;;;;26.30;31.40;;;;;;1572078;74;793;-58
2022/07/16 03:47:14;;;;;;;;;;;26.20;31.40;;;;;;1576413;74;1906;-59
2022/07/16 03:49:16;;;;;;;;;;;26.20;31.40;;;;;;1573620;74;931;-58
2022/07/16 03:51:18;;;;;;;;;;;26.20;31.40;;;;;;1577023;74;791;-60
2022/07/16 03:53:20;;;;;;;;;;;26.20;31.40;;;;;;1578348;74;1144;-60
2022/07/16 03:55:21;;;;;;;;;;;26.30;31.40;;;;;;1575537;74;726;-60
2022/07/16 03:57:23;;;;;;;;;;;26.20;31.40;;;;;;1570589;74;722;-59
2022/07/16 03:59:25;;;;;;;;;;;26.20;31.50;;;;;;1576019;74;694;-59
2022/07/16 04:01:27;;;;;;;;;;;26.20;31.40;;;;;;1576242;74;1516;-60
2022/07/16 04:03:29;;;;;;;;;;;26.20;31.40;;;;;;1568011;74;746;-59
2022/07/16 04:05:31;;;;;;;;;;;26.20;31.50;;;;;;1569736;74;719;-59
2022/07/16 04:07:33;;;;;;;;;;;26.20;31.60;;;;;;1566345;74;1946;-59
2022/07/16 04:09:35;;;;;;;;;;;26.30;31.50;;;;;;1576762;74;794;-57
2022/07/16 04:11:36;;;;;;;;;;;26.20;31.50;;;;;;1567013;74;1179;-59
2022/07/16 04:13:38;;;;;;;;;;;26.30;31.50;;;;;;1569490;74;696;-59
2022/07/16 04:15:40;;;;;;;;;;;26.20;31.50;;;;;;1575191;74;1551;-59
2022/07/16 04:17:42;;;;;;;;;;;26.20;31.50;;;;;;1574212;74;654;-59
2022/07/16 04:19:44;;;;;;;;;;;26.20;31.50;;;;;;1572128;74;679;-59
2022/07/16 04:21:46;;;;;;;;;;;26.30;31.50;;;;;;1570140;74;1112;-58
2022/07/16 04:23:48;;;;;;;;;;;26.30;31.50;;;;;;1576829;74;859;-58
2022/07/16 04:25:52;;;;;;;;;;;26.20;31.50;;;;;;1577770;74;1941;-59
2022/07/16 04:27:53;;;;;;;;;;;26.20;31.50;;;;;;1570288;74;1368;-58
2022/07/16 04:29:55;;;;;;;;;;;26.20;31.50;;;;;;1576074;74;1549;-58
2022/07/16 04:31:57;;;;;;;;;;;26.20;31.60;;;;;;1572574;74;1137;-59
2022/07/16 04:33:59;;;;;;;;;;;26.20;31.80;;;;;;1575116;74;791;-59
2022/07/16 04:36:02;;;;;;;;;;;26.20;31.60;;;;;;1573428;74;751;-58
2022/07/16 04:38:06;;;;;;;;;;;26.30;31.50;;;;;;1562919;74;818;-58
2022/07/16 04:40:08;;;;;;;;;;;26.20;31.50;;;;;;1574045;74;1788;-58
2022/07/16 04:42:10;;;;;;;;;;;26.20;31.50;;;;;;1578988;74;1144;-58
2022/07/16 04:44:12;;;;;;;;;;;26.20;31.50;;;;;;1577483;74;1541;-59
2022/07/16 04:46:14;;;;;;;;;;;26.20;31.50;;;;;;1573281;74;1916;-59
2022/07/16 04:48:16;;;;;;;;;;;26.30;31.60;;;;;;1572444;74;747;-58
2022/07/16 04:50:18;;;;;;;;;;;26.20;31.70;;;;;;1580471;74;701;-59
2022/07/16 04:52:19;;;;;;;;;;;26.20;31.60;;;;;;1574068;74;1101;-60
2022/07/16 04:54:21;;;;;;;;;;;26.20;31.70;;;;;;1570681;74;641;-59
2022/07/16 04:56:23;;;;;;;;;;;26.20;31.70;;;;;;1576054;74;687;-59
2022/07/16 04:58:25;;;;;;;;;;;26.20;31.70;;;;;;1578213;74;1577;-58
2022/07/16 05:00:27;;;;;;;;;;;26.20;31.70;;;;;;1575693;74;776;-58
2022/07/16 05:04:49;;;;;;;;;;;26.20;31.70;;;;;;1569469;74;1650;-58
2022/07/16 05:06:51;;;;;;;;;;;26.20;31.70;;;;;;1576275;74;1949;-59
2022/07/16 05:08:53;;;;;;;;;;;26.20;31.70;;;;;;1571602;74;887;-59
2022/07/16 05:10:55;;;;;;;;;;;26.20;31.80;;;;;;1577421;74;821;-59
2022/07/16 05:12:57;;;;;;;;;;;26.20;31.80;;;;;;1571796;74;1500;-58
2022/07/16 05:14:58;;;;;;;;;;;26.10;31.80;;;;;;1576068;74;711;-59
2022/07/16 05:17:00;;;;;;;;;;;26.20;31.80;;;;;;1570617;74;654;-58
2022/07/16 05:19:02;;;;;;;;;;;26.20;31.80;;;;;;1574435;74;684;-58
2022/07/16 05:21:04;;;;;;;;;;;26.20;31.80;;;;;;1573450;74;821;-59
2022/07/16 05:23:06;;;;;;;;;;;26.20;31.80;;;;;;1574894;74;1094;-60
2022/07/16 05:25:08;;;;;;;;;;;26.20;31.80;;;;;;1575455;74;737;-60
2022/07/16 05:27:10;;;;;;;;;;;26.20;31.80;;;;;;1577984;74;1937;-58
2022/07/16 05:29:12;;;;;;;;;;;26.30;31.90;;;;;;1587233;74;867;-57
2022/07/16 05:31:14;;;;;;;;;;;26.30;32.10;;;;;;1577828;74;711;-58
2022/07/16 05:33:16;;;;;;;;;;;26.30;31.80;;;;;;1596573;74;1115;-58
2022/07/16 05:35:18;;;;;;;;;;;26.40;31.80;;;;;;1587002;74;741;-58
2022/07/16 05:37:20;;;;;;;;;;;26.20;31.80;;;;;;1582698;74;737;-57
2022/07/16 05:39:22;;;;;;;;;;;26.20;31.80;;;;;;1582820;74;1530;-58
2022/07/16 05:41:24;;;;;;;;;;;26.20;31.90;;;;;;1573910;74;1155;-57
2022/07/16 05:43:26;;;;;;;;;;;26.10;31.90;;;;;;1571186;74;671;-58
2022/07/16 05:45:28;;;;;;;;;;;26.10;32.00;;;;;;1578496;74;831;-58
2022/07/16 05:47:32;;;;;;;;;;;26.10;32.00;;;;;;1582027;74;1933;-58
2022/07/16 05:49:34;;;;;;;;;;;26.00;32.00;;;;;;1579038;74;1659;-56
2022/07/16 05:51:35;;;;;;;;;;;26.00;32.00;;;;;;1574019;74;1128;-58
2022/07/16 05:53:38;;;;;;;;;;;26.00;32.10;;;;;;1572121;74;1590;-57
2022/07/16 05:55:40;;;;;;;;;;;26.00;32.10;;;;;;1574317;74;725;-57
2022/07/16 05:57:41;;;;;;;;;;;26.00;32.10;;;;;;1577353;74;782;-58
2022/07/16 05:59:43;;;;;;;;;;;26.00;32.20;;;;;;1573056;74;742;-58
2022/07/16 06:01:45;;;;;;;;;;;26.00;32.10;;;;;;1576668;74;1128;-58
2022/07/16 06:03:47;;;;;;;;;;;26.00;32.20;;;;;;1576401;74;744;-58
2022/07/16 06:05:49;;;;;;;;;;;26.00;32.20;;;;;;1575543;74;855;-58
2022/07/16 06:07:51;;;;;;;;;;;26.00;32.20;;;;;;1578949;71;3007;-53
2022/07/16 06:09:53;;;;;;;;;;;26.00;32.30;;;;;;1589224;73;721;-53
2022/07/16 06:11:54;;;;;;;;;;;25.90;31.70;;;;;;1595283;73;1195;-53
2022/07/16 06:13:56;;;;;;;;;;;26.00;32.30;;;;;;1578931;73;813;-53
2022/07/16 06:15:58;;;;;;;;;;;26.00;32.30;;;;;;1582770;74;745;-52
2022/07/16 06:18:00;;;;;;;;;;;26.00;32.30;;;;;;1545690;75;1313;-53
2022/07/16 06:20:02;;;;;;;;;;;26.00;32.30;;;;;;1584353;74;757;-54
2022/07/16 06:22:04;;;;;;;;;;;26.00;32.40;;;;;;1581593;74;1545;-53
2022/07/16 06:24:06;;;;;;;;;;;26.00;32.40;;;;;;1577236;74;787;-53
2022/07/16 06:26:07;;;;;;;;;;;25.90;31.80;;;;;;1588227;74;682;-53
2022/07/16 06:28:09;;;;;;;;;;;26.00;32.30;;;;;;1572367;74;1942;-53
2022/07/16 06:30:11;;;;;;;;;;;26.00;32.40;;;;;;1566502;74;677;-53
2022/07/16 06:32:13;;;;;;;;;;;26.00;32.30;;;;;;1566990;74;1133;-55
2022/07/16 06:34:15;;;;;;;;;;;25.90;31.90;;;;;;1583980;74;606;-54
2022/07/16 06:36:17;;;;;;;;;;;26.00;32.30;;;;;;1577109;74;1309;-55
2022/07/16 06:38:19;;;;;;;;;;;25.90;31.80;;;;;;1583506;73;639;-54
2022/07/16 06:40:21;;;;;;;;;;;26.00;32.30;;;;;;1577895;74;697;-55
2022/07/16 06:42:23;;;;;;;;;;;25.90;31.80;;;;;;1567930;74;1138;-54
2022/07/16 06:44:25;;;;;;;;;;;25.90;31.80;;;;;;1577806;74;701;-54
2022/07/16 06:46:26;;;;;;;;;;;25.90;31.80;;;;;;1563309;73;805;-53
2022/07/16 06:48:28;;;;;;;;;;;25.90;31.70;;;;;;1577411;74;1942;-55
2022/07/16 06:50:30;;;;;;;;;;;25.90;31.70;;;;;;1565479;74;1444;-53
2022/07/16 06:52:32;;;;;;;;;;;25.90;31.70;;;;;;1569285;74;1343;-56
2022/07/16 06:54:34;;;;;;;;;;;25.90;31.70;;;;;;1565931;74;735;-54
2022/07/16 06:56:36;;;;;;;;;;;25.90;31.70;;;;;;1576541;74;693;-55
2022/07/16 06:58:38;;;;;;;;;;;25.90;31.70;;;;;;1584463;74;717;-53
2022/07/16 07:00:39;;;;;;;;;;;25.90;31.70;;;;;;1571326;74;676;-55
2022/07/16 07:02:41;;;;;;;;;;;25.90;31.60;;;;;;1564254;74;1086;-53
2022/07/16 07:04:43;;;;;;;;;;;25.90;31.60;;;;;;1564445;74;1466;-55
2022/07/16 07:06:45;;;;;;;;;;;25.90;31.50;;;;;;1568959;74;1925;-55
2022/07/16 07:08:47;;;;;;;;;;;26.00;32.10;;;;;;1572472;73;759;-53
2022/07/16 07:10:49;;;;;;;;;;;25.90;31.50;;;;;;1573250;74;923;-54
2022/07/16 07:12:52;;;;;;;;;;;25.90;31.50;;;;;;1573117;74;1178;-54
2022/07/16 07:14:54;;;;;;;;;;;26.00;32.10;;;;;;1588887;74;672;-53
2022/07/16 07:16:56;;;;;;;;;;;26.00;32.10;;;;;;1585184;73;1092;-53
2022/07/16 07:18:58;;;;;;;;;;;25.90;31.50;;;;;;1579115;74;1367;-54
2022/07/16 07:21:00;;;;;;;;;;;25.90;31.60;;;;;;1574795;74;728;-54
2022/07/16 07:23:02;;;;;;;;;;;25.90;31.60;;;;;;1587404;74;1156;-54
2022/07/16 07:25:04;;;;;;;;;;;25.90;31.60;;;;;;1577626;73;723;-53
2022/07/16 07:27:06;;;;;;;;;;;25.90;31.60;;;;;;1577775;74;1958;-53
2022/07/16 07:29:08;;;;;;;;;;;25.90;31.60;;;;;;1584832;73;670;-54
2022/07/16 07:31:10;;;;;;;;;;;26.00;32.10;;;;;;1572247;73;830;-53
2022/07/16 07:33:11;;;;;;;;;;;25.90;31.60;;;;;;1568481;74;1483;-54
2022/07/16 07:35:13;;;;;;;;;;;25.90;31.60;;;;;;1569507;74;752;-55
2022/07/16 07:37:15;;;;;;;;;;;25.90;31.50;;;;;;1566072;74;695;-54
2022/07/16 07:39:17;;;;;;;;;;;25.90;31.60;;;;;;1569089;73;728;-55
2022/07/16 07:41:19;;;;;;;;;;;25.90;31.50;;;;;;1572853;74;712;-53
2022/07/16 07:43:21;;;;;;;;;;;25.90;31.50;;;;;;1578097;74;1123;-53
2022/07/16 07:45:23;;;;;;;;;;;25.90;31.50;;;;;;1566687;74;576;-54
2022/07/16 07:47:25;;;;;;;;;;;25.90;31.40;;;;;;1566902;74;1932;-54
2022/07/16 07:49:27;;;;;;;;;;;26.00;32.00;;;;;;1578870;74;700;-53
2022/07/16 07:51:30;;;;;;;;;;;25.90;31.50;;;;;;1583069;74;1145;-54
2022/07/16 07:53:34;;;;;;;;;;;26.00;32.00;;;;;;1590665;74;709;-53
2022/07/16 07:55:35;;;;;;;;;;;25.90;31.50;;;;;;1584515;74;1885;-54
2022/07/16 07:57:37;;;;;;;;;;;25.90;31.50;;;;;;1575712;74;747;-53
2022/07/16 07:59:39;;;;;;;;;;;25.90;31.50;;;;;;1563437;74;730;-53
2022/07/16 08:01:42;;;;;;;;;;;25.90;31.50;;;;;;1575188;74;1481;-53
2022/07/16 08:03:44;;;;;;;;;;;26.00;32.00;;;;;;1579206;74;705;-54
2022/07/16 08:05:46;;;;;;;;;;;26.00;32.00;;;;;;1575067;74;725;-53
2022/07/16 08:07:48;;;;;;;;;;;25.90;31.40;;;;;;1570306;73;1914;-54
2022/07/16 08:09:50;;;;;;;;;;;25.90;31.50;;;;;;1572587;74;811;-55
2022/07/16 08:11:52;;;;;;;;;;;25.90;31.50;;;;;;1579495;73;1202;-54
2022/07/16 08:13:54;;;;;;;;;;;26.00;31.90;;;;;;1558475;74;715;-54
2022/07/16 08:15:55;;;;;;;;;;;25.90;31.40;;;;;;1584972;73;797;-54
2022/07/16 08:17:57;;;;;;;;;;;25.90;31.40;;;;;;1583995;74;617;-54
2022/07/16 08:19:59;;;;;;;;;;;25.90;31.40;;;;;;1574306;74;732;-53
2022/07/16 08:22:01;;;;;;;;;;;25.90;31.30;;;;;;1583792;74;1141;-54
2022/07/16 08:26:19;;;;;;;;;;;25.90;31.30;;;;;;1530815;74;1049;-56
2022/07/16 08:28:21;;;;;;;;;;;25.90;31.30;;;;;;1578038;74;1918;-56
2022/07/16 08:30:23;;;;;;;;;;;25.90;31.20;;;;;;1565922;74;703;-55
2022/07/16 08:32:24;;;;;;;;;;;25.90;31.30;;;;;;1577508;74;1117;-56
2022/07/16 08:34:26;;;;;;;;;;;25.90;31.20;;;;;;1568523;74;705;-56
2022/07/16 08:36:28;;;;;;;;;;;25.90;31.20;;;;;;1567219;73;718;-56
2022/07/16 08:38:30;;;;;;;;;;;25.90;31.20;;;;;;1561291;74;860;-56
2022/07/16 08:40:32;;;;;;;;;;;25.90;31.20;;;;;;1583658;74;702;-56
2022/07/16 08:42:34;;;;;;;;;;;25.90;31.20;;;;;;1580161;74;1478;-56
2022/07/16 08:44:37;;;;;;;;;;;25.90;31.20;;;;;;1579827;74;709;-54
2022/07/16 08:46:38;;;;;;;;;;;25.90;31.30;;;;;;1570334;73;702;-56
2022/07/16 08:48:40;;;;;;;;;;;25.90;31.30;;;;;;1593746;74;1936;-55
2022/07/16 08:50:42;;;;;;;;;;;25.90;31.30;;;;;;1566452;74;676;-55
2022/07/16 08:52:46;;;;;;;;;;;26.00;31.80;;;;;;1579742;74;1071;-56
2022/07/16 08:54:48;;;;;;;;;;;26.00;31.80;;;;;;1574689;74;674;-55
2022/07/16 08:56:50;;;;;;;;;;;26.00;31.80;;;;;;1582827;74;1448;-54
2022/07/16 08:58:52;;;;;;;;;;;25.90;31.30;;;;;;1574827;74;751;-56
2022/07/16 09:00:53;;;;;;;;;;;25.90;31.20;;;;;;1569544;74;712;-54
2022/07/16 09:02:55;;;;;;;;;;;25.90;31.20;;;;;;1574979;74;1135;-56
2022/07/16 09:04:57;;;;;;;;;;;25.90;31.20;;;;;;1571342;74;708;-54
2022/07/16 09:06:59;;;;;;;;;;;25.80;31.10;;;;;;1536996;75;772;-54
2022/07/16 09:09:01;;;;;;;;;;;25.90;31.10;;;;;;1549075;76;1950;-54
2022/07/16 09:11:19;;;;;;;;;;;25.90;31.10;;;;;;1543651;76;1401;-55
2022/07/16 09:13:21;;;;;;;;;;;25.90;31.00;;;;;;1528991;76;1791;-54
2022/07/16 09:15:25;;;;;;;;;;;25.80;31.00;;;;;;1540969;76;720;-54
2022/07/16 09:17:27;;;;;;;;;;;25.80;31.00;;;;;;1539154;76;687;-54
2022/07/16 09:19:29;;;;;;;;;;;25.90;31.00;;;;;;1548529;76;701;-54
2022/07/16 09:21:31;;;;;;;;;;;25.80;31.00;;;;;;1539773;75;1110;-55
2022/07/16 09:23:34;;;;;;;;;;;25.80;31.00;;;;;;1526269;76;705;-54
2022/07/16 09:25:36;;;;;;;;;;;25.90;31.00;;;;;;1533195;76;1593;-56
2022/07/16 09:27:39;;;;;;;;;;;25.90;31.00;;;;;;1498820;77;1935;-55
2022/07/16 09:29:45;;;;;;;;;;;25.90;31.00;;;;;;1528346;77;753;-55
2022/07/16 09:31:47;;;;;;;;;;;25.80;31.00;;;;;;1514022;77;1095;-54
2022/07/16 09:33:50;;;;;;;;;;;25.80;30.90;;;;;;1517208;77;691;-54
2022/07/16 09:35:54;;;;;;;;;;;25.90;30.80;;;;;;1509350;77;1992;-54
2022/07/16 09:37:56;;;;;;;;;;;25.90;30.80;;;;;;1536564;77;2093;-54
2022/07/16 09:39:59;;;;;;;;;;;25.90;30.70;;;;;;1521271;77;1483;-54
2022/07/16 09:42:01;;;;;;;;;;;25.80;30.70;;;;;;1503515;78;1111;-54
2022/07/16 09:44:02;;;;;;;;;;;25.80;30.70;;;;;;1537835;76;753;-54
2022/07/16 09:46:04;;;;;;;;;;;25.80;30.70;;;;;;1503586;77;694;-55
2022/07/16 09:48:22;;;;;;;;;;;25.80;30.70;;;;;;1532726;76;1934;-54
2022/07/16 09:50:24;;;;;;;;;;;25.70;30.70;;;;;;1541268;76;705;-56
2022/07/16 09:52:32;;;;;;;;;;;25.80;30.60;;;;;;1546813;76;1500;-56
2022/07/16 09:54:36;;;;;;;;;;;25.80;30.50;;;;;;1523372;76;755;-55
2022/07/16 09:56:38;;;;;;;;;;;25.70;30.50;;;;;;1516693;76;1065;-53
2022/07/16 09:58:39;;;;;;;;;;;25.80;30.50;;;;;;1541511;76;757;-55
2022/07/16 10:00:41;;;;;;;;;;;25.80;30.50;;;;;;1526303;76;666;-54
2022/07/16 10:02:43;;;;;;;;;;;25.80;30.50;;;;;;1530971;76;1139;-54
2022/07/16 10:04:45;;;;;;;;;;;25.80;30.50;;;;;;1526143;76;641;-54
2022/07/16 10:06:47;;;;;;;;;;;25.80;30.60;;;;;;1527422;76;1519;-55
2022/07/16 10:08:49;;;;;;;;;;;25.80;30.60;;;;;;1528714;76;1937;-54
2022/07/16 10:10:51;;;;;;;;;;;25.80;30.60;;;;;;1532597;75;765;-54
2022/07/16 10:12:53;;;;;;;;;;;25.90;30.60;;;;;;1520563;76;1120;-55
2022/07/16 10:14:55;;;;;;;;;;;25.90;30.70;;;;;;1513922;76;649;-56
2022/07/16 10:17:00;;;;;;;;;;;25.80;30.60;;;;;;1517484;76;790;-54
2022/07/16 10:19:01;;;;;;;;;;;25.80;30.70;;;;;;1528942;76;1079;-55
2022/07/16 10:21:08;;;;;;;;;;;25.90;30.70;;;;;;1526315;76;1439;-55
2022/07/16 10:23:10;;;;;;;;;;;25.80;30.70;;;;;;1527659;76;1101;-53
2022/07/16 10:25:15;;;;;;;;;;;25.80;30.70;;;;;;1504076;77;1172;-53
2022/07/16 10:27:19;;;;;;;;;;;25.80;30.70;;;;;;1523332;76;801;-54
2022/07/16 10:29:22;;;;;;;;;;;25.80;30.60;;;;;;1519118;76;1933;-55
2022/07/16 10:31:31;;;;;;;;;;;25.80;30.60;;;;;;1522954;76;1591;-55
2022/07/16 10:33:32;;;;;;;;;;;25.80;30.50;;;;;;1521625;76;784;-54
2022/07/16 10:35:38;;;;;;;;;;;25.90;30.50;;;;;;1519454;76;1452;-54
2022/07/16 10:37:40;;;;;;;;;;;25.90;30.50;;;;;;1513955;76;762;-54
2022/07/16 10:39:59;;;;;;;;;;;25.80;30.60;;;;;;1519273;76;738;-54
2022/07/16 10:42:01;;;;;;;;;;;25.90;30.50;;;;;;1519299;76;1142;-55
2022/07/16 10:44:10;;;;;;;;;;;25.80;30.60;;;;;;1518129;76;704;-55
2022/07/16 10:46:12;;;;;;;;;;;25.90;30.50;;;;;;1521828;76;694;-53
2022/07/16 10:48:14;;;;;;;;;;;25.80;30.50;;;;;;1522527;76;1930;-53
2022/07/16 10:50:17;;;;;;;;;;;25.80;30.40;;;;;;1521490;76;1451;-54
2022/07/16 10:52:20;;;;;;;;;;;25.70;30.30;;;;;;1517973;76;1904;-54
2022/07/16 10:54:22;;;;;;;;;;;25.80;30.20;;;;;;1521879;76;660;-53
2022/07/16 10:56:31;;;;;;;;;;;25.70;30.20;;;;;;1528180;76;808;-53
2022/07/16 10:58:33;;;;;;;;;;;25.70;30.20;;;;;;1520301;76;1665;-56
2022/07/16 11:00:35;;;;;;;;;;;25.90;30.20;;;;;;1519618;76;1074;-55
2022/07/16 11:02:38;;;;;;;;;;;25.90;30.20;;;;;;1517961;76;1042;-54
2022/07/16 11:04:41;;;;;;;;;;;25.90;30.10;;;;;;1521963;76;841;-54
2022/07/16 11:06:45;;;;;;;;;;;25.90;30.00;;;;;;1524307;76;729;-54
2022/07/16 11:08:47;;;;;;;;;;;25.90;30.00;;;;;;1536317;76;1932;-55
2022/07/16 11:10:49;;;;;;;;;;;25.90;30.00;;;;;;1539374;76;783;-54
2022/07/16 11:12:51;;;;;;;;;;;25.90;30.00;;;;;;1528520;76;1218;-54
2022/07/16 11:14:53;;;;;;;;;;;25.90;30.00;;;;;;1528021;76;730;-54
2022/07/16 11:16:56;;;;;;;;;;;25.80;30.10;;;;;;1530456;76;1573;-54
2022/07/16 11:19:02;;;;;;;;;;;25.80;30.00;;;;;;1523606;76;809;-54
2022/07/16 11:21:08;;;;;;;;;;;25.80;29.90;;;;;;1522452;76;769;-54
2022/07/16 11:23:11;;;;;;;;;;;25.80;30.00;;;;;;1516293;76;1337;-56
2022/07/16 11:25:13;;;;;;;;;;;25.80;30.00;;;;;;1524350;76;749;-54
2022/07/16 11:27:15;;;;;;;;;;;25.80;30.00;;;;;;1520779;76;736;-54
2022/07/16 11:29:18;;;;;;;;;;;25.80;30.00;;;;;;1520325;76;1913;-54
2022/07/16 11:31:30;;;;;;;;;;;25.80;30.00;;;;;;1518757;76;1439;-53
2022/07/16 11:33:35;;;;;;;;;;;25.90;30.10;;;;;;1525631;76;879;-53
2022/07/16 11:35:37;;;;;;;;;;;25.90;30.00;;;;;;1525132;76;689;-53
2022/07/16 11:37:53;;;;;;;;;;;25.80;30.00;;;;;;1523962;76;715;-53
2022/07/16 11:39:59;;;;;;;;;;;25.90;29.90;;;;;;1523658;76;822;-54
2022/07/16 11:42:01;;;;;;;;;;;25.80;29.90;;;;;;1514914;76;1558;-54
2022/07/16 11:44:10;;;;;;;;;;;25.80;29.80;;;;;;1515331;76;744;-54
2022/07/16 11:46:23;;;;;;;;;;;25.70;29.80;;;;;;1526243;76;1451;-54
2022/07/16 11:48:25;;;;;;;;;;;25.70;29.70;;;;;;1532083;76;1917;-54
2022/07/16 11:50:27;;;;;;;;;;;25.70;29.70;;;;;;1503639;77;1151;-54
2022/07/16 11:52:30;;;;;;;;;;;25.80;29.80;;;;;;1532522;76;1122;-54
2022/07/16 11:54:36;;;;;;;;;;;25.80;29.70;;;;;;1519670;76;810;-54
2022/07/16 11:56:38;;;;;;;;;;;25.70;29.70;;;;;;1525105;76;710;-54
2022/07/16 11:58:40;;;;;;;;;;;25.70;29.60;;;;;;1520790;76;935;-54
2022/07/16 12:00:45;;;;;;;;;;;25.70;29.60;;;;;;1520040;76;1546;-54
2022/07/16 12:02:47;;;;;;;;;;;25.80;29.60;;;;;;1521576;76;1134;-56
2022/07/16 12:04:50;;;;;;;;;;;25.70;29.60;;;;;;1505494;77;791;-53
2022/07/16 12:06:52;;;;;;;;;;;25.70;29.50;;;;;;1523711;76;757;-53
2022/07/16 12:08:56;;;;;;;;;;;25.70;29.50;;;;;;1567509;72;232394;-69
2022/07/16 12:11:02;;;;;;;;;;;25.80;29.50;;;;;;1588318;74;822;-69
2022/07/16 12:13:04;;;;;;;;;;;25.70;29.40;;;;;;1585813;74;1500;-69
2022/07/16 12:15:07;;;;;;;;;;;25.70;29.30;;;;;;1587540;74;708;-70
2022/07/16 12:17:19;;;;;;;;;;;25.80;29.20;;;;;;1585767;74;702;-69